Kezdőlap
METAR-TAF:

METAR-TAF

Repülőterek :

Skyhaven Airport

Rochester, New Hampshire, Amerikai Egyesült Államok

földrajzi szélesség: 43-16-41N, földrajzi hosszúság: 070-55-20W, magasság: 98 m

Jelenlegi meteorológiai megfigyelések

A jelentés 5 perccel ezelõtt készült, 22:31 UTC
Déli szél 4 kt
Hőmérséklet -9°C
Páratartalom 73%
Légköri nyomás 1023 hPa
Látótávolság: 2.4 km
Borult 2400 lábon
enyhe havazás

METAR: KDAW 182231Z AUTO 18004KT 1 1/2SM -SN OVC024 M09/M13 A3021 RMK AO2 SNB2154 P0000 T10941133

Idő: 17:36 (22:36 UTC)


TAF: hiányzik

Meteorológiai megfigyelések és előrejelzések több, mint 4000 repülőtéren (METAR és TAF jelentéseket).

A térképen piros és sárga pontok jelzik az elérhető meteorológiai állomásokat.

Mozgassa az egeret a pont fölött, hogy megjelenjen az állomás neve.

Azután kattintson az időjárási megfigyelések és előrejelzések megtekintéséhez.

A térkép megváltoztatása: kattintson a fekete keresztel jelölt zöld gombra ráközelítéshez, a vonallal jelölt zöld gombra távolításhoz, vagy a zöld nyilakra a szomszédos térképek eléréséhez.


METAR-TAF: